Terminal Aerodrome Forecast
Issued by NWS

Home | Current Version | Previous Version | Text Only | Print | Product List | Glossary On
Versions: 1 2 3 4 5 6 7 8 9 10 11 12 13 14 15 16 17 18 19 20 21 22 23 24 25 26 27 28 29 30 31 32 33 34 35 36 37 38
000
FTUS43 KDMX 281746
TAFFOD
TAF
KFOD 281746Z 2818/2918 17013KT P6SM BKN220
     FM282200 17010G16KT P6SM VCSH SCT050 BKN100
     FM290200 17008KT 6SM -SHRA BR SCT030 OVC070
      TEMPO 2904/2907 2SM TSRA BKN030CB
     FM290900 21006KT 6SM BR VCSH OVC030
     FM291400 18009KT 6SM -SHRA OVC040=

USA.gov is the U.S. government's official web portal to all federal, state and local government web resources and services.